NZCH/CHC METAR and TAF weather

Enter ICAO airport designator
Station Type Date Time Source
NZCH METAR 2018/12/11 20:00 UTC NOAA

NZCH 112000Z AUTO 10008KT 4000 DZ BR SCT005/// OVC009/// 14/14 Q1013 TEMPO BKN004


Station Type Date Time Source
NZCH Decoded METAR 2018/12/11 20:00 UTC NOAA

Christchurch, New Zealand (NZCH) 43-29S 172-33E 30M
Dec 11, 2018 - 03:00 PM EST / 2018.12.11 2000 UTC
Wind: from the E (100 degrees) at 9 MPH (8 KT):0
Visibility: 2 mile(s):0
Sky conditions: overcast
Weather: drizzle; mist
Temperature: 57 F (14 C)
Dew Point: 57 F (14 C)
Relative Humidity: 100%
Pressure (altimeter): 29.91 in. Hg (1013 hPa)
ob: NZCH 112000Z AUTO 10008KT 4000 DZ BR SCT005/// OVC009/// 14/14 Q1013 TEMPO BKN004
cycle: 20

Station Type Date Time Source
NZCH TAF 2018/12/11 18:06 UTC NOAA

TAF NZCH 111703Z 1118/1218 09005KT 7000 RADZ BKN006
TEMPO 1118/1122 4000 RADZ BKN004
BECMG 1200/1202 09015KT
TEMPO 1200/1206 9999 -DZ SCT008
FM120700 16005KT 7000 RADZ BKN006
TEMPO 1208/1218 4000 RADZ BKN004


Example: see airport list